createdAt,value
2019-01-21T00:00:55.501Z,21.1
2019-01-21T00:02:07.697Z,20.9
2019-01-21T00:03:19.963Z,21.9
2019-01-21T00:04:32.074Z,24.5
2019-01-21T00:05:44.417Z,22.8
2019-01-21T00:06:56.499Z,21.2
2019-01-21T00:08:08.639Z,23.1
2019-01-21T00:09:20.897Z,22.3
2019-01-21T00:10:33.013Z,21.6
2019-01-21T00:11:45.209Z,24.9
2019-01-21T00:12:57.411Z,24.7
2019-01-21T00:14:09.618Z,22.1
2019-01-21T00:15:21.954Z,22.1
2019-01-21T00:16:34.257Z,22.6
2019-01-21T00:17:46.434Z,22.7
2019-01-21T00:18:58.393Z,22.9
2019-01-21T00:20:10.593Z,22.8
2019-01-21T00:21:22.867Z,20.3
2019-01-21T00:22:35.056Z,23.7
2019-01-21T00:23:47.171Z,21.2
2019-01-21T00:24:59.438Z,24.6
2019-01-21T00:26:11.568Z,21.2
2019-01-21T00:27:23.846Z,21.3
2019-01-21T00:28:35.960Z,24.5
2019-01-21T00:29:48.350Z,23.5
2019-01-21T00:31:00.411Z,22.1
2019-01-21T00:32:12.617Z,25.7
2019-01-21T00:33:24.843Z,20.7
2019-01-21T00:34:37.050Z,23.4
2019-01-21T00:35:49.273Z,23.3
2019-01-21T00:37:01.500Z,23.2
2019-01-21T00:38:13.519Z,21.1
2019-01-21T00:39:26.169Z,21.4
2019-01-21T00:40:38.002Z,22.3
2019-01-21T00:41:50.209Z,20.4
2019-01-21T00:43:02.339Z,21.6
2019-01-21T00:44:14.503Z,23.9
2019-01-21T00:45:26.799Z,22.6
2019-01-21T00:46:38.970Z,21.4
2019-01-21T00:47:51.106Z,21.7
2019-01-21T00:49:03.376Z,21.3
2019-01-21T00:50:15.499Z,26.3
2019-01-21T00:51:27.681Z,22.4
2019-01-21T00:52:39.995Z,22.8
2019-01-21T00:53:52.268Z,22.6
2019-01-21T00:55:04.275Z,24.3
2019-01-21T00:56:16.541Z,24
2019-01-21T00:57:28.671Z,24.2
2019-01-21T00:58:40.942Z,24
2019-01-21T00:59:53.159Z,24.7
2019-01-21T01:01:05.322Z,22.6
2019-01-21T01:02:17.484Z,24
2019-01-21T01:03:29.717Z,22.7
2019-01-21T01:04:41.921Z,23.4
2019-01-21T01:05:54.230Z,24.2
2019-01-21T01:07:06.266Z,21.3
2019-01-21T01:08:18.499Z,22.4
2019-01-21T01:09:30.616Z,22.3
2019-01-21T01:10:42.900Z,21.8
2019-01-21T01:11:55.194Z,22.3
2019-01-21T01:13:07.294Z,22.9
2019-01-21T01:14:19.472Z,23.2
2019-01-21T01:15:31.687Z,21.7
2019-01-21T01:16:43.810Z,20.4
2019-01-21T01:17:56.105Z,23.8
2019-01-21T01:19:08.299Z,21.1
2019-01-21T01:20:20.481Z,23.5
2019-01-21T01:21:32.671Z,22.3
2019-01-21T01:22:44.855Z,22.3
2019-01-21T01:23:57.023Z,19.9
2019-01-21T01:25:09.246Z,20.8
2019-01-21T01:26:21.381Z,23.7
2019-01-21T01:27:33.697Z,21.4
2019-01-21T01:28:45.865Z,19.7
2019-01-21T01:29:58.058Z,19.3
2019-01-21T01:31:10.188Z,20.8
2019-01-21T01:32:22.349Z,20.8
2019-01-21T01:33:34.617Z,22.4
2019-01-21T01:34:46.738Z,20.4
2019-01-21T01:35:58.947Z,19.5
2019-01-21T01:37:11.235Z,18.2
2019-01-21T01:38:23.332Z,20.1
2019-01-21T01:39:35.633Z,21.5
2019-01-21T01:40:47.714Z,22
2019-01-21T01:42:00.009Z,20.8
2019-01-21T01:43:12.352Z,19.4
2019-01-21T01:44:24.312Z,21
2019-01-21T01:45:36.560Z,19.9
2019-01-21T01:46:48.761Z,20.2
2019-01-21T01:48:01.021Z,20.3
2019-01-21T01:49:13.089Z,21.2
2019-01-21T01:50:25.294Z,20.1
2019-01-21T01:51:37.527Z,20.4
2019-01-21T01:52:49.774Z,18.8
2019-01-21T01:54:01.846Z,20.2
2019-01-21T01:55:14.047Z,17.9
2019-01-21T01:56:26.311Z,17.9
2019-01-21T01:57:38.507Z,16.4
2019-01-21T01:58:50.630Z,18.5
2019-01-21T02:00:02.834Z,17.8
2019-01-21T02:01:15.102Z,17.3
2019-01-21T02:02:27.299Z,17.7
2019-01-21T02:03:39.443Z,18.5
2019-01-21T02:04:51.622Z,20
2019-01-21T02:06:03.910Z,17.9
2019-01-21T02:07:16.034Z,19.9
2019-01-21T02:08:28.288Z,19.8
2019-01-21T02:09:40.431Z,17.9
2019-01-21T02:10:52.635Z,17.5
2019-01-21T02:12:04.872Z,20.9
2019-01-21T02:13:17.041Z,20.8
2019-01-21T02:14:29.287Z,21.4
2019-01-21T02:15:41.499Z,17.8
2019-01-21T02:16:53.549Z,18.1
2019-01-21T02:18:05.838Z,17.5
2019-01-21T02:19:18.019Z,18.1
2019-01-21T02:20:30.137Z,19
2019-01-21T02:21:42.389Z,18.8
2019-01-21T02:22:54.731Z,21.3
2019-01-21T02:24:06.795Z,22
2019-01-21T02:25:19.068Z,22.4
2019-01-21T02:26:31.196Z,19.8
2019-01-21T02:27:43.321Z,23.3
2019-01-21T02:28:55.493Z,21.6
2019-01-21T02:30:07.760Z,22.3
2019-01-21T02:31:19.907Z,23.8
2019-01-21T02:32:32.078Z,23.5
2019-01-21T02:33:44.335Z,22.3
2019-01-21T02:34:56.543Z,24.9
2019-01-21T02:36:08.652Z,21.5
2019-01-21T02:37:20.849Z,22.8
2019-01-21T02:38:33.042Z,20.6
2019-01-21T02:39:45.236Z,23
2019-01-21T02:40:57.589Z,19.8
2019-01-21T02:42:09.822Z,21.3
2019-01-21T02:43:21.909Z,23.2
2019-01-21T02:44:34.152Z,25
2019-01-21T02:45:46.361Z,24.4
2019-01-21T02:46:58.748Z,22
2019-01-21T02:48:10.603Z,22.3
2019-01-21T02:49:22.882Z,22.3
2019-01-21T02:50:35.308Z,23
2019-01-21T02:51:47.187Z,23
2019-01-21T02:52:59.510Z,21.6
2019-01-21T02:54:11.743Z,19.9
2019-01-21T02:55:23.766Z,20.9
2019-01-21T02:56:36.035Z,20.3
2019-01-21T02:57:48.367Z,23.5
2019-01-21T02:59:00.359Z,21.9
2019-01-21T03:00:14.117Z,20.1
2019-01-21T03:01:24.756Z,21.6
2019-01-21T03:02:36.945Z,19.9
2019-01-21T03:03:49.159Z,22.4
2019-01-21T03:05:01.399Z,21.7
2019-01-21T03:06:13.685Z,23.1
2019-01-21T03:07:25.744Z,18.7
2019-01-21T03:08:37.921Z,21.9
2019-01-21T03:09:50.197Z,18.9
2019-01-21T03:11:02.367Z,19.4
2019-01-21T03:12:14.555Z,21.8
2019-01-21T03:13:26.728Z,21.6
2019-01-21T03:14:39.110Z,20.6
2019-01-21T03:15:51.140Z,19
2019-01-21T03:17:03.289Z,21.7
2019-01-21T03:18:15.556Z,21.5
2019-01-21T03:19:27.663Z,23.1
2019-01-21T03:20:41.438Z,20
2019-01-21T03:21:52.162Z,20.7
2019-01-21T03:23:04.386Z,21.1
2019-01-21T03:24:16.553Z,21
2019-01-21T03:25:28.753Z,21.6
2019-01-21T03:26:40.918Z,21.2
2019-01-21T03:27:53.018Z,19
2019-01-21T03:29:05.232Z,21
2019-01-21T03:30:17.460Z,19
2019-01-21T03:31:29.652Z,21.4
2019-01-21T03:32:41.941Z,21
2019-01-21T03:33:53.988Z,21.6
2019-01-21T03:35:06.221Z,21.1
2019-01-21T03:36:18.518Z,21.2
2019-01-21T03:37:30.566Z,21.8
2019-01-21T03:38:42.889Z,22.1
2019-01-21T03:39:54.981Z,19.8
2019-01-21T03:41:07.261Z,20.8
2019-01-21T03:42:19.342Z,21.1
2019-01-21T03:43:31.661Z,23.4
2019-01-21T03:44:43.744Z,20.9
2019-01-21T03:45:56.027Z,19.8
2019-01-21T03:47:08.173Z,20.1
2019-01-21T03:48:20.399Z,21.8
2019-01-21T03:49:32.636Z,19.6
2019-01-21T03:50:44.741Z,20.4
2019-01-21T03:51:56.988Z,20.2
2019-01-21T03:53:09.110Z,20.6
2019-01-21T03:54:21.473Z,20.6
2019-01-21T03:55:33.572Z,19.8
2019-01-21T03:56:45.736Z,19.4
2019-01-21T03:57:57.963Z,18.4
2019-01-21T03:59:10.087Z,16.9
2019-01-21T04:00:22.348Z,20.6
2019-01-21T04:01:34.527Z,19.8
2019-01-21T04:02:46.801Z,22.1
2019-01-21T04:03:58.915Z,18.7
2019-01-21T04:05:11.065Z,20.4
2019-01-21T04:06:23.360Z,17.3
2019-01-21T04:07:35.496Z,17.3
2019-01-21T04:08:47.800Z,18.7
2019-01-21T04:09:59.815Z,19.4
2019-01-21T04:11:12.199Z,18
2019-01-21T04:12:24.289Z,19.5
2019-01-21T04:13:36.400Z,18.1
2019-01-21T04:14:48.720Z,18.4
2019-01-21T04:16:00.798Z,17.7
2019-01-21T04:17:12.988Z,19.1
2019-01-21T04:18:25.201Z,20
2019-01-21T04:19:37.367Z,17.5
2019-01-21T04:20:49.591Z,18.1
2019-01-21T04:22:01.827Z,16.9
2019-01-21T04:23:13.977Z,17.8
2019-01-21T04:24:26.256Z,17.3
2019-01-21T04:25:38.349Z,16.5
2019-01-21T04:26:50.649Z,17.5
2019-01-21T04:28:02.807Z,17.2
2019-01-21T04:29:14.960Z,18.9
2019-01-21T04:30:29.003Z,17.2
2019-01-21T04:31:39.446Z,19.5
2019-01-21T04:32:51.525Z,20.8
2019-01-21T04:34:03.715Z,17.3
2019-01-21T04:35:15.907Z,18.9
2019-01-21T04:36:28.166Z,16.2
2019-01-21T04:37:41.113Z,18.4
2019-01-21T04:38:52.513Z,18.2
2019-01-21T04:40:04.751Z,17.5
2019-01-21T04:41:17.033Z,19.3
2019-01-21T04:42:29.077Z,18.3
2019-01-21T04:43:41.686Z,18.2
2019-01-21T04:44:53.505Z,17.4
2019-01-21T04:46:05.667Z,20.2
2019-01-21T04:47:17.855Z,17.5
2019-01-21T04:48:30.042Z,18.5
2019-01-21T04:49:42.308Z,16.7
2019-01-21T04:50:54.523Z,19.9
2019-01-21T04:52:06.623Z,20.2
2019-01-21T04:53:18.899Z,19.4
2019-01-21T04:54:31.022Z,18.1
2019-01-21T04:55:43.213Z,18.2
2019-01-21T04:56:55.475Z,19.2
2019-01-21T04:58:07.686Z,19.3
2019-01-21T04:59:19.796Z,19
2019-01-21T05:00:32.040Z,19.7
2019-01-21T05:01:44.281Z,19.9
2019-01-21T05:02:56.386Z,18.6
2019-01-21T05:04:08.564Z,22.2
2019-01-21T05:05:20.758Z,19.3
2019-01-21T05:06:33.020Z,19.6
2019-01-21T05:07:45.222Z,18.6
2019-01-21T05:08:57.355Z,18.8
2019-01-21T05:10:09.617Z,20.4
2019-01-21T05:11:21.747Z,18.9
2019-01-21T05:12:34.010Z,15.3
2019-01-21T05:13:46.283Z,18.3
2019-01-21T05:14:58.311Z,22.4
2019-01-21T05:16:10.525Z,19.3
2019-01-21T05:17:22.807Z,18.7
2019-01-21T05:18:35.005Z,19
2019-01-21T05:19:47.111Z,18.3
2019-01-21T05:20:59.292Z,18.5
2019-01-21T05:22:11.483Z,19.5
2019-01-21T05:23:23.683Z,20.2
2019-01-21T05:24:35.890Z,19.3
2019-01-21T05:25:48.079Z,19.2
2019-01-21T05:27:00.338Z,19.7
2019-01-21T05:28:12.541Z,19.2
2019-01-21T05:29:24.730Z,19.4
2019-01-21T05:30:36.915Z,17.3
2019-01-21T05:31:49.078Z,21.6
2019-01-21T05:33:01.379Z,18
2019-01-21T05:34:13.511Z,16.9
2019-01-21T05:35:25.660Z,22.3
2019-01-21T05:36:37.839Z,16.9
2019-01-21T05:37:50.021Z,18.7
2019-01-21T05:39:02.321Z,19.4
2019-01-21T05:40:14.402Z,18.3
2019-01-21T05:41:26.995Z,19.1
2019-01-21T05:42:38.782Z,18.4
2019-01-21T05:43:51.036Z,17.2
2019-01-21T05:45:04.158Z,20.5
2019-01-21T05:46:15.428Z,18
2019-01-21T05:47:27.642Z,17.6
2019-01-21T05:48:39.765Z,17.7
2019-01-21T05:49:51.982Z,17.7
2019-01-21T05:51:04.155Z,18.2
2019-01-21T05:52:16.385Z,20
2019-01-21T05:53:28.635Z,18.3
2019-01-21T05:54:40.925Z,19.2
2019-01-21T05:55:52.972Z,18
2019-01-21T05:57:05.121Z,19.8
2019-01-21T05:58:17.421Z,18.2
2019-01-21T05:59:29.516Z,17.2
2019-01-21T06:00:41.887Z,21.3
2019-01-21T06:01:53.893Z,19.6
2019-01-21T06:03:06.102Z,19.1
2019-01-21T06:04:18.283Z,18.9
2019-01-21T06:05:30.583Z,18.7
2019-01-21T06:06:42.999Z,18.6
2019-01-21T06:07:54.944Z,17.5
2019-01-21T06:09:07.098Z,18.4
2019-01-21T06:10:19.347Z,19.3
2019-01-21T06:11:31.605Z,18.3
2019-01-21T06:12:43.656Z,19.2
2019-01-21T06:13:55.920Z,19.9
2019-01-21T06:15:08.109Z,19.1
2019-01-21T06:16:20.229Z,19
2019-01-21T06:17:32.487Z,17.7
2019-01-21T06:18:44.730Z,16.7
2019-01-21T06:19:56.889Z,17.8
2019-01-21T06:21:09.015Z,20.4
2019-01-21T06:22:21.296Z,17.8
2019-01-21T06:23:33.541Z,20.7
2019-01-21T06:24:45.767Z,19.9
2019-01-21T06:25:59.757Z,18.8
2019-01-21T06:27:10.027Z,20.3
2019-01-21T06:28:22.248Z,19.9
2019-01-21T06:29:34.444Z,19.8
2019-01-21T06:30:46.780Z,18.5
2019-01-21T06:31:58.748Z,19.7
2019-01-21T06:33:11.068Z,21.1
2019-01-21T06:34:23.147Z,19.6
2019-01-21T06:35:35.342Z,18.3
2019-01-21T06:36:47.537Z,19.9
2019-01-21T06:37:59.770Z,17.5
2019-01-21T06:39:11.963Z,17.8
2019-01-21T06:40:24.197Z,18.1
2019-01-21T06:41:36.398Z,20.2
2019-01-21T06:42:48.604Z,19
2019-01-21T06:44:00.771Z,19.8
2019-01-21T06:45:12.978Z,18.1
2019-01-21T06:46:25.098Z,21
2019-01-21T06:47:37.610Z,19
2019-01-21T06:48:49.551Z,22.1
2019-01-21T06:50:01.686Z,19.9
2019-01-21T06:51:14.052Z,21.7
2019-01-21T06:52:26.234Z,20.2
2019-01-21T06:53:38.534Z,19.2
2019-01-21T06:54:50.568Z,19.6
2019-01-21T06:56:02.648Z,19.7
2019-01-21T06:57:14.928Z,21.1
2019-01-21T06:58:27.180Z,22.4
2019-01-21T06:59:39.231Z,19.1
2019-01-21T07:00:51.436Z,20.1
2019-01-21T07:02:03.708Z,19.3
2019-01-21T07:03:15.859Z,20.5
2019-01-21T07:04:28.010Z,20.3
2019-01-21T07:05:40.228Z,18.9
2019-01-21T07:06:52.393Z,21.2
2019-01-21T07:08:04.698Z,17.2
2019-01-21T07:09:16.847Z,19.8
2019-01-21T07:10:28.977Z,19.6
2019-01-21T07:11:41.287Z,18.1
2019-01-21T07:12:53.536Z,19.5
2019-01-21T07:14:05.655Z,19.6
2019-01-21T07:15:17.844Z,20.1
2019-01-21T07:16:29.967Z,18.5
2019-01-21T07:17:42.310Z,21.4
2019-01-21T07:18:54.522Z,18.8
2019-01-21T07:20:06.543Z,18.7
2019-01-21T07:21:18.819Z,19.6
2019-01-21T07:22:31.049Z,18.1
2019-01-21T07:23:43.212Z,19.4
2019-01-21T07:24:55.550Z,20.5
2019-01-21T07:26:07.504Z,20.6
2019-01-21T07:27:19.779Z,21.3
2019-01-21T07:28:31.892Z,18.8
2019-01-21T07:29:44.124Z,19.9
2019-01-21T07:30:56.382Z,19.9
2019-01-21T07:32:08.473Z,22.2
2019-01-21T07:33:20.865Z,19.9
2019-01-21T07:34:32.866Z,19.1
2019-01-21T07:35:45.170Z,19.1
2019-01-21T07:36:57.372Z,18.4
2019-01-21T07:38:09.521Z,21.4
2019-01-21T07:39:21.640Z,20
2019-01-21T07:40:33.832Z,20.2
2019-01-21T07:41:46.029Z,19.5
2019-01-21T07:42:58.320Z,19.4
2019-01-21T07:44:10.430Z,18
2019-01-21T07:45:22.612Z,20.8
2019-01-21T07:46:34.831Z,18.4
2019-01-21T07:47:47.021Z,19.6
2019-01-21T07:48:59.191Z,19.6
2019-01-21T07:50:11.427Z,23.4
2019-01-21T07:51:23.579Z,18.4
2019-01-21T07:52:35.914Z,21.9
2019-01-21T07:53:48.051Z,20.7
2019-01-21T07:55:00.272Z,21.3
2019-01-21T07:56:12.449Z,24.6
2019-01-21T07:57:24.561Z,24
2019-01-21T07:58:36.763Z,25.3
2019-01-21T07:59:49.036Z,21.1
2019-01-21T08:01:01.315Z,21.3
2019-01-21T08:02:13.392Z,19.9
2019-01-21T08:03:25.588Z,20.1
2019-01-21T08:04:37.823Z,18.7
2019-01-21T08:05:49.923Z,20.7
2019-01-21T08:07:02.133Z,23
2019-01-21T08:08:15.146Z,18.3
2019-01-21T08:09:26.516Z,20.8
2019-01-21T08:10:38.711Z,19.7
2019-01-21T08:11:51.092Z,20.9
2019-01-21T08:13:03.278Z,19.3
2019-01-21T08:14:15.366Z,18.5
2019-01-21T08:15:27.480Z,21.1
2019-01-21T08:16:42.321Z,19.3
2019-01-21T08:17:52.633Z,22
2019-01-21T08:19:04.136Z,19.1
2019-01-21T08:20:16.303Z,22.5
2019-01-21T08:21:28.512Z,20.4
2019-01-21T08:22:40.736Z,20.4
2019-01-21T08:23:52.938Z,19.3
2019-01-21T08:25:05.111Z,17.7
2019-01-21T08:26:17.265Z,17.5
2019-01-21T08:27:29.435Z,21.1
2019-01-21T08:28:41.707Z,17.1
2019-01-21T08:29:53.806Z,20.7
2019-01-21T08:31:06.147Z,18.7
2019-01-21T08:32:18.196Z,17.5
2019-01-21T08:33:30.528Z,17.8
2019-01-21T08:34:43.969Z,17.8
2019-01-21T08:35:54.858Z,21.2
2019-01-21T08:37:07.138Z,20.8
2019-01-21T08:38:19.259Z,22.3
2019-01-21T08:39:31.403Z,19.3
2019-01-21T08:40:43.650Z,23.3
2019-01-21T08:41:55.808Z,21
2019-01-21T08:43:08.160Z,19.7
2019-01-21T08:44:20.136Z,18
2019-01-21T08:45:32.416Z,19.8
2019-01-21T08:46:44.611Z,20
2019-01-21T08:47:56.811Z,23.4
2019-01-21T08:49:09.013Z,18.5
2019-01-21T08:50:21.103Z,18.1
2019-01-21T08:51:33.369Z,17.5
2019-01-21T08:52:45.660Z,19.7
2019-01-21T08:53:57.682Z,19.9
2019-01-21T08:55:12.504Z,18.8
2019-01-21T08:56:22.156Z,18.5
2019-01-21T08:57:34.341Z,15.9
2019-01-21T08:58:46.478Z,16.7
2019-01-21T08:59:58.846Z,19.7
2019-01-21T09:01:10.915Z,16.8
2019-01-21T09:02:23.086Z,18.9
2019-01-21T09:03:35.249Z,20.4
2019-01-21T09:04:48.240Z,17.5
2019-01-21T09:05:59.650Z,19.7
2019-01-21T09:07:13.158Z,19.9
2019-01-21T09:08:24.033Z,18.8
2019-01-21T09:09:36.210Z,19.8
2019-01-21T09:10:48.507Z,18.4
2019-01-21T09:12:00.678Z,18.7
2019-01-21T09:13:12.947Z,18.5
2019-01-21T09:14:24.994Z,17.9
2019-01-21T09:15:37.284Z,17.5
2019-01-21T09:16:49.391Z,20.5
2019-01-21T09:18:01.558Z,17.8
2019-01-21T09:19:13.832Z,18.9
2019-01-21T09:20:26.021Z,19.5
2019-01-21T09:21:38.222Z,18.7
2019-01-21T09:22:50.427Z,18.6
2019-01-21T09:24:02.575Z,18.7
2019-01-21T09:25:14.824Z,20.4
2019-01-21T09:26:26.999Z,19.5
2019-01-21T09:27:39.122Z,19.6
2019-01-21T09:28:51.394Z,20.2
2019-01-21T09:30:03.601Z,18.8
2019-01-21T09:31:15.773Z,17.9
2019-01-21T09:32:28.070Z,18.5
2019-01-21T09:33:40.096Z,19.2
2019-01-21T09:34:52.384Z,19.7
2019-01-21T09:36:04.582Z,17.8
2019-01-21T09:37:16.864Z,19.1
2019-01-21T09:38:28.874Z,18.1
2019-01-21T09:39:41.056Z,19.5
2019-01-21T09:40:53.390Z,18.2
2019-01-21T09:42:05.651Z,19.9
2019-01-21T09:43:17.812Z,17.2
2019-01-21T09:44:29.972Z,19.4
2019-01-21T09:45:42.049Z,18.4
2019-01-21T09:46:57.768Z,18.6
2019-01-21T09:48:07.545Z,18.5
2019-01-21T09:49:18.707Z,17.5
2019-01-21T09:50:30.881Z,19
2019-01-21T09:51:43.170Z,17.8
2019-01-21T09:52:55.272Z,20.1
2019-01-21T09:54:07.489Z,17.5
2019-01-21T09:55:19.767Z,19
2019-01-21T09:56:31.862Z,20.1
2019-01-21T09:57:43.991Z,20.4
2019-01-21T09:58:56.227Z,19.8
2019-01-21T10:00:08.595Z,19
2019-01-21T10:01:20.717Z,17.8
2019-01-21T10:02:32.765Z,20.4
2019-01-21T10:03:45.050Z,20.1
2019-01-21T10:04:57.282Z,17.7
2019-01-21T10:06:09.506Z,19.2
2019-01-21T10:07:21.685Z,19.5
2019-01-21T10:08:33.810Z,17
2019-01-21T10:09:45.910Z,19
2019-01-21T10:10:58.318Z,19.4
2019-01-21T10:12:10.433Z,20.6
2019-01-21T10:13:25.391Z,20.3
2019-01-21T10:14:34.680Z,17.7
2019-01-21T10:15:47.034Z,19.6
2019-01-21T10:16:59.088Z,18.2
2019-01-21T10:18:11.366Z,19.2
2019-01-21T10:19:23.546Z,18.3
2019-01-21T10:20:35.816Z,19.6
2019-01-21T10:21:47.922Z,18
2019-01-21T10:23:00.223Z,19
2019-01-21T10:24:12.222Z,20.7
2019-01-21T10:25:26.743Z,19.4
2019-01-21T10:26:36.621Z,17.7
2019-01-21T10:27:48.877Z,17.5
2019-01-21T10:29:01.082Z,18.2
2019-01-21T10:30:13.384Z,16.3
2019-01-21T10:31:25.546Z,18.2
2019-01-21T10:32:37.818Z,19.5
2019-01-21T10:33:49.778Z,20.2
2019-01-21T10:35:02.141Z,18.6
2019-01-21T10:36:14.169Z,19.2
2019-01-21T10:37:26.525Z,18.9
2019-01-21T10:38:38.635Z,20.1
2019-01-21T10:39:50.932Z,20.5
2019-01-21T10:41:03.215Z,21.6
2019-01-21T10:42:15.242Z,19.2
2019-01-21T10:43:27.423Z,19.8
2019-01-21T10:44:39.674Z,21.6
2019-01-21T10:45:51.893Z,21.4
2019-01-21T10:47:04.034Z,18.2
2019-01-21T10:48:16.236Z,19.3
2019-01-21T10:49:28.302Z,18.5
2019-01-21T10:50:40.523Z,19.6
2019-01-21T10:51:52.778Z,20.4
2019-01-21T10:53:04.944Z,20.3
2019-01-21T10:54:17.165Z,20.4
2019-01-21T10:55:29.495Z,20.4
2019-01-21T10:56:41.757Z,20.4
2019-01-21T10:57:53.785Z,18.8
2019-01-21T10:59:05.950Z,21.2
2019-01-21T11:00:18.130Z,20.5
2019-01-21T11:01:30.402Z,19.5
2019-01-21T11:02:42.479Z,20.8
2019-01-21T11:03:54.731Z,20.2
2019-01-21T11:05:06.953Z,18.9
2019-01-21T11:06:19.010Z,22.3
2019-01-21T11:07:31.428Z,20.6
2019-01-21T11:08:43.583Z,19.9
2019-01-21T11:09:57.046Z,21.9
2019-01-21T11:11:07.894Z,20.7
2019-01-21T11:12:19.972Z,20.4
2019-01-21T11:13:32.334Z,20.3
2019-01-21T11:14:44.368Z,20.2
2019-01-21T11:15:56.694Z,20.8
2019-01-21T11:17:08.760Z,20.5
2019-01-21T11:18:21.064Z,21.3
2019-01-21T11:19:33.312Z,19.6
2019-01-21T11:20:45.350Z,23.1
2019-01-21T11:21:57.544Z,21
2019-01-21T11:23:09.909Z,19.8
2019-01-21T11:24:21.966Z,20.8
2019-01-21T11:25:34.213Z,19.1
2019-01-21T11:26:46.463Z,21.1
2019-01-21T11:27:58.601Z,17.9
2019-01-21T11:29:10.742Z,19.6
2019-01-21T11:30:22.927Z,19.4
2019-01-21T11:31:35.189Z,21.9
2019-01-21T11:32:47.480Z,20.3
2019-01-21T11:33:59.578Z,24.4
2019-01-21T11:35:11.675Z,20.7
2019-01-21T11:36:23.873Z,21
2019-01-21T11:37:36.159Z,19.5
2019-01-21T11:38:48.295Z,21
2019-01-21T11:40:00.463Z,22.4
2019-01-21T11:41:12.928Z,18.7
2019-01-21T11:42:24.956Z,20.1
2019-01-21T11:43:37.165Z,20.3
2019-01-21T11:44:49.238Z,22
2019-01-21T11:46:01.453Z,20.6
2019-01-21T11:47:13.641Z,21.1
2019-01-21T11:48:25.969Z,20.6
2019-01-21T11:49:38.130Z,21
2019-01-21T11:50:50.309Z,20.2
2019-01-21T11:52:02.527Z,20.2
2019-01-21T11:53:14.634Z,20
2019-01-21T11:54:26.901Z,19.5
2019-01-21T11:55:42.235Z,21.5
2019-01-21T11:56:51.445Z,21.3
2019-01-21T11:58:03.589Z,19.9
2019-01-21T11:59:15.673Z,23.7
2019-01-21T12:00:27.787Z,19.8
2019-01-21T12:01:39.979Z,21.6
2019-01-21T12:02:52.280Z,20.5
2019-01-21T12:04:04.443Z,21.8
2019-01-21T12:05:17.555Z,19.3
2019-01-21T12:06:28.826Z,20.7
2019-01-21T12:07:41.053Z,20.8
2019-01-21T12:08:53.219Z,21.1
2019-01-21T12:10:05.341Z,22.6
2019-01-21T12:11:17.797Z,22
2019-01-21T12:12:29.735Z,24.1
2019-01-21T12:13:41.927Z,22.1
2019-01-21T12:14:54.230Z,24
2019-01-21T12:16:06.424Z,20.7
2019-01-21T12:17:18.559Z,21.6
2019-01-21T12:18:30.838Z,22.5
2019-01-21T12:19:43.084Z,23.1
2019-01-21T12:20:55.141Z,22.7
2019-01-21T12:22:07.348Z,20.4
2019-01-21T12:23:19.592Z,22.1
2019-01-21T12:24:31.773Z,23.1
2019-01-21T12:25:43.899Z,21.3
2019-01-21T12:26:56.208Z,24.5
2019-01-21T12:28:08.292Z,24.1
2019-01-21T12:29:20.499Z,24.3
2019-01-21T12:30:32.856Z,22.1
2019-01-21T12:31:45.033Z,24.5
2019-01-21T12:32:57.123Z,23.2
2019-01-21T12:34:09.276Z,22.9
2019-01-21T12:35:21.454Z,24.9
2019-01-21T12:36:33.650Z,23
2019-01-21T12:37:45.836Z,25.1
2019-01-21T12:38:58.154Z,21.9
2019-01-21T12:40:10.332Z,23
2019-01-21T12:41:22.430Z,22.1
2019-01-21T12:42:36.339Z,22.7
2019-01-21T12:43:46.916Z,25.5
2019-01-21T12:44:59.026Z,24.3
2019-01-21T12:46:11.388Z,24
2019-01-21T12:47:23.481Z,22.6
2019-01-21T12:48:35.665Z,26.1
2019-01-21T12:49:47.839Z,22.5
2019-01-21T12:51:00.063Z,22.8
2019-01-21T12:52:12.189Z,25.1
2019-01-21T12:53:24.633Z,24.1
2019-01-21T12:54:36.588Z,24.4
2019-01-21T12:55:48.954Z,26.4
2019-01-21T12:57:01.203Z,26.1
2019-01-21T12:58:13.246Z,24.7
2019-01-21T12:59:25.608Z,25
2019-01-21T13:00:37.566Z,25.2
2019-01-21T13:01:49.849Z,23
2019-01-21T13:03:02.030Z,22.1
2019-01-21T13:04:14.252Z,25.6
2019-01-21T13:05:26.465Z,26.6
2019-01-21T13:06:38.633Z,26.2
2019-01-21T13:07:51.346Z,23.3
2019-01-21T13:09:03.024Z,24.7
2019-01-21T13:10:15.118Z,24.3
2019-01-21T13:11:27.403Z,25.7
2019-01-21T13:12:39.726Z,25.3
2019-01-21T13:13:51.742Z,24.5
2019-01-21T13:15:03.975Z,25.9
2019-01-21T13:16:16.382Z,24.5
2019-01-21T13:17:28.369Z,25.4
2019-01-21T13:18:40.492Z,24.7
2019-01-21T13:19:52.856Z,25.2
2019-01-21T13:21:04.890Z,22.6
2019-01-21T13:22:17.153Z,24.4
2019-01-21T13:23:29.353Z,24.1
2019-01-21T13:24:41.465Z,25.8
2019-01-21T13:25:53.676Z,20.9
2019-01-21T13:27:05.943Z,21.8
2019-01-21T13:28:18.070Z,21.8
2019-01-21T13:29:30.336Z,23.7
2019-01-21T13:32:44.557Z,22.2
2019-01-21T13:32:44.609Z,23
2019-01-21T13:33:06.983Z,22.6
2019-01-21T13:34:19.070Z,27.2
2019-01-21T13:35:31.378Z,23.3
2019-01-21T13:36:43.423Z,23
2019-01-21T13:37:57.071Z,25.1
2019-01-21T13:39:07.949Z,28
2019-01-21T13:40:20.031Z,25.5
2019-01-21T13:41:32.202Z,23.5
2019-01-21T13:42:44.540Z,26.1
2019-01-21T13:43:56.698Z,23
2019-01-21T13:45:08.974Z,24.1
2019-01-21T13:46:21.128Z,23.2
2019-01-21T13:47:33.186Z,21.9
2019-01-21T13:48:45.383Z,20.8
2019-01-21T13:49:57.662Z,24.2
2019-01-21T13:51:09.944Z,24
2019-01-21T13:52:22.087Z,21.6
2019-01-21T13:53:34.247Z,26.4
2019-01-21T13:54:46.437Z,20.7
2019-01-21T13:55:58.710Z,23.1
2019-01-21T13:57:10.830Z,23.7
2019-01-21T13:58:22.960Z,26.3
2019-01-21T13:59:35.312Z,22.5
2019-01-21T14:00:47.447Z,23.9
2019-01-21T14:01:59.546Z,23.3
2019-01-21T14:03:11.968Z,26.8
2019-01-21T14:04:23.915Z,22.8
2019-01-21T14:05:36.314Z,23.7
2019-01-21T14:06:48.498Z,23.3
2019-01-21T14:08:00.635Z,23.9
2019-01-21T14:09:12.713Z,25.1
2019-01-21T14:10:24.987Z,22.8
2019-01-21T14:11:37.162Z,23.3
2019-01-21T14:12:49.331Z,25.7
2019-01-21T14:14:01.710Z,26.4
2019-01-21T14:15:13.761Z,22.4
2019-01-21T14:16:25.974Z,22.3
2019-01-21T14:17:38.146Z,24.5
2019-01-21T14:18:50.266Z,22.5
2019-01-21T14:20:02.577Z,21.6
2019-01-21T14:21:14.763Z,21.9
2019-01-21T14:22:26.900Z,21.4
2019-01-21T14:23:39.120Z,21.7
2019-01-21T14:24:51.250Z,22.9
2019-01-21T14:26:05.885Z,23.7
2019-01-21T14:27:15.797Z,23.2
2019-01-21T14:28:28.014Z,22.8
2019-01-21T14:29:40.085Z,24.3
2019-01-21T14:30:52.268Z,22.3
2019-01-21T14:32:04.506Z,22.2
2019-01-21T14:33:16.815Z,23.6
2019-01-21T14:34:28.939Z,21.7
2019-01-21T14:35:41.100Z,22.4
2019-01-21T14:36:53.301Z,23.4
2019-01-21T14:38:05.577Z,26.9
2019-01-21T14:39:17.691Z,21.3
2019-01-21T14:40:29.959Z,21.3
2019-01-21T14:41:42.122Z,21.4
2019-01-21T14:42:54.271Z,23.6
2019-01-21T14:44:06.494Z,21.2
2019-01-21T14:45:18.662Z,21.1
2019-01-21T14:46:30.851Z,20.7
2019-01-21T14:47:43.157Z,20.6
2019-01-21T14:48:55.237Z,20.6
2019-01-21T14:50:07.409Z,27.2
2019-01-21T14:51:19.636Z,23.3
2019-01-21T14:52:31.796Z,23.8
2019-01-21T14:53:44.045Z,23.4
2019-01-21T14:54:56.210Z,22.2
2019-01-21T14:56:08.421Z,22
2019-01-21T14:57:20.711Z,22.3
2019-01-21T14:58:32.811Z,22
2019-01-21T14:59:44.940Z,21.6
2019-01-21T15:00:57.124Z,21.8
2019-01-21T15:02:09.484Z,21.9
2019-01-21T15:03:21.597Z,22
2019-01-21T15:04:33.786Z,23.8
2019-01-21T15:05:45.955Z,20.8
2019-01-21T15:06:58.161Z,21.9
2019-01-21T15:08:11.662Z,22.2
2019-01-21T15:09:22.565Z,21.5
2019-01-21T15:10:34.736Z,22.6
2019-01-21T15:11:47.175Z,22.1
2019-01-21T15:12:59.087Z,23.1
2019-01-21T15:14:11.260Z,22.6
2019-01-21T15:15:23.548Z,20.3
2019-01-21T15:16:35.677Z,20.3
2019-01-21T15:17:48.056Z,26.7
2019-01-21T15:19:00.125Z,23.5
2019-01-21T15:20:12.345Z,23.5
2019-01-21T15:21:24.453Z,25.5
2019-01-21T15:22:40.637Z,25.2
2019-01-21T15:23:49.898Z,25.1
2019-01-21T15:25:01.042Z,26.1
2019-01-21T15:26:13.415Z,25.3
2019-01-21T15:27:25.585Z,24.8
2019-01-21T15:28:37.608Z,25.2
2019-01-21T15:29:49.881Z,27.3
2019-01-21T15:31:02.091Z,25.6
2019-01-21T15:32:14.307Z,24.3
2019-01-21T15:33:26.487Z,26.7
2019-01-21T15:34:38.777Z,26.2
2019-01-21T15:35:50.806Z,25.5
2019-01-21T15:37:03.131Z,26.2
2019-01-21T15:38:15.202Z,23.6
2019-01-21T15:39:27.469Z,27
2019-01-21T15:40:39.592Z,27.3
2019-01-21T15:41:51.801Z,23.4
2019-01-21T15:43:04.048Z,27
2019-01-21T15:44:16.330Z,27.6
2019-01-21T15:45:28.439Z,27.5
2019-01-21T15:46:40.551Z,24
2019-01-21T15:47:52.738Z,24.2
2019-01-21T15:49:04.947Z,25.6
2019-01-21T15:50:19.938Z,28.9
2019-01-21T15:51:29.413Z,24.1
2019-01-21T15:52:41.547Z,30.8
2019-01-21T15:53:53.883Z,26.2
2019-01-21T15:55:06.106Z,25.9
2019-01-21T15:56:18.284Z,27.8
2019-01-21T15:57:30.402Z,25.6
2019-01-21T15:58:42.504Z,27.8
2019-01-21T15:59:54.771Z,25.5
2019-01-21T16:01:06.905Z,25.2
2019-01-21T16:02:19.100Z,25.5
2019-01-21T16:03:33.094Z,27.2
2019-01-21T16:04:43.525Z,26.2
2019-01-21T16:05:55.738Z,26.1
2019-01-21T16:07:07.966Z,25.8